createdAt,value
2023-04-08T00:00:00.558Z,99312.81
2023-04-08T00:02:27.706Z,99318.47
2023-04-08T00:04:54.333Z,99310.50
2023-04-08T00:07:21.158Z,99316.63
2023-04-08T00:09:47.674Z,99299.56
2023-04-08T00:12:14.251Z,99297.91
2023-04-08T00:14:41.644Z,99278.09
2023-04-08T00:17:09.329Z,99275.59
2023-04-08T00:19:36.313Z,99270.81
2023-04-08T00:22:03.042Z,99272.91
2023-04-08T00:24:29.697Z,99259.66
2023-04-08T00:26:56.916Z,99254.00
2023-04-08T00:29:24.716Z,99234.97
2023-04-08T00:31:51.581Z,99203.38
2023-04-08T00:34:18.118Z,99190.16
2023-04-08T00:36:45.034Z,99044.88
2023-04-08T00:39:11.398Z,99148.16
2023-04-08T00:41:40.036Z,99160.41
2023-04-08T00:44:06.920Z,99149.06
2023-04-08T00:46:38.847Z,99113.59
2023-04-08T00:49:07.620Z,99086.94
2023-04-08T00:51:36.594Z,99094.72
2023-04-08T00:54:05.028Z,99063.22
2023-04-08T00:56:32.316Z,98855.34
2023-04-08T00:59:00.050Z,99070.25
2023-04-08T01:01:47.706Z,99077.38
2023-04-08T01:04:27.234Z,99081.13
2023-04-08T01:07:04.502Z,99081.91
2023-04-08T01:09:32.789Z,99069.47
2023-04-08T01:12:01.384Z,99068.38
2023-04-08T01:14:29.305Z,99048.00
2023-04-08T01:16:57.082Z,99033.50
2023-04-08T01:19:27.065Z,99017.16
2023-04-08T01:21:55.027Z,99009.38
2023-04-08T01:24:28.146Z,98989.63
2023-04-08T01:26:57.196Z,98981.00
2023-04-08T01:29:24.965Z,99012.09
2023-04-08T01:31:52.042Z,99012.00
2023-04-08T01:34:19.942Z,99025.69
2023-04-08T01:36:47.442Z,99031.53
2023-04-08T01:39:15.274Z,98986.25
2023-04-08T01:41:41.823Z,99044.06
2023-04-08T01:44:09.677Z,99037.63
2023-04-08T01:46:37.274Z,99038.31
2023-04-08T01:49:05.536Z,99014.56
2023-04-08T01:51:32.808Z,99003.59
2023-04-08T01:53:59.417Z,98992.84
2023-04-08T01:56:27.608Z,98970.81
2023-04-08T01:58:54.890Z,98968.97
2023-04-08T02:01:25.167Z,98959.22
2023-04-08T02:03:53.632Z,98928.09
2023-04-08T02:06:20.267Z,98943.22
2023-04-08T02:08:46.967Z,98975.97
2023-04-08T02:11:13.630Z,98954.69
2023-04-08T02:13:40.551Z,98914.75
2023-04-08T02:16:16.103Z,98902.91
2023-04-08T02:18:44.701Z,98867.22
2023-04-08T02:21:19.451Z,98859.19
2023-04-08T02:23:49.452Z,98854.91
2023-04-08T02:26:17.047Z,98857.38
2023-04-08T02:28:43.845Z,98835.81
2023-04-08T02:31:13.761Z,98784.00
2023-04-08T02:33:40.538Z,98716.34
2023-04-08T02:36:08.264Z,98740.41
2023-04-08T02:38:34.879Z,98740.13
2023-04-08T02:41:01.641Z,98730.38
2023-04-08T02:43:31.987Z,98732.66
2023-04-08T02:46:00.581Z,98706.97
2023-04-08T02:48:27.246Z,98693.56
2023-04-08T02:50:54.569Z,98659.09
2023-04-08T02:53:22.464Z,98644.88
2023-04-08T02:55:49.099Z,98603.59
2023-04-08T02:58:17.967Z,98595.50
2023-04-08T03:00:44.686Z,98566.84
2023-04-08T03:03:11.269Z,98545.84
2023-04-08T03:05:37.813Z,98530.09
2023-04-08T03:08:04.514Z,98492.97
2023-04-08T03:10:31.069Z,98494.91
2023-04-08T03:12:57.466Z,98469.47
2023-04-08T03:15:24.009Z,98501.69
2023-04-08T03:17:51.532Z,98486.06
2023-04-08T03:20:18.209Z,98462.53
2023-04-08T03:22:44.663Z,98434.81
2023-04-08T03:25:12.283Z,98471.66
2023-04-08T03:27:38.702Z,98461.84
2023-04-08T03:30:05.597Z,98417.34
2023-04-08T03:32:32.908Z,98370.56
2023-04-08T03:34:59.628Z,98377.72
2023-04-08T03:37:26.210Z,98342.41
2023-04-08T03:39:53.322Z,98326.41
2023-04-08T03:42:20.266Z,98360.75
2023-04-08T03:44:48.204Z,98361.16
2023-04-08T03:47:14.902Z,98349.56
2023-04-08T03:49:41.752Z,98315.13
2023-04-08T03:52:10.877Z,98290.81
2023-04-08T03:54:38.140Z,98232.69
2023-04-08T03:57:04.761Z,98192.13
2023-04-08T03:59:31.312Z,98152.25
2023-04-08T04:01:58.157Z,98120.94
2023-04-08T04:04:24.854Z,98086.25
2023-04-08T04:06:51.547Z,98048.19
2023-04-08T04:09:18.624Z,98035.97
2023-04-08T04:11:45.026Z,97995.28
2023-04-08T04:14:11.545Z,97953.59
2023-04-08T04:16:38.125Z,97915.34
2023-04-08T04:19:04.910Z,97886.25
2023-04-08T04:21:32.178Z,97867.06
2023-04-08T04:23:58.560Z,97864.88
2023-04-08T04:26:25.112Z,97863.34
2023-04-08T04:28:51.890Z,97874.13
2023-04-08T04:31:19.740Z,97842.47
2023-04-08T04:33:47.481Z,97805.91
2023-04-08T04:36:14.662Z,97823.44
2023-04-08T04:38:41.358Z,97814.88
2023-04-08T04:41:07.866Z,97825.53
2023-04-08T04:43:34.337Z,97832.16
2023-04-08T04:46:02.382Z,97830.47
2023-04-08T04:48:28.779Z,97809.50
2023-04-08T04:50:56.284Z,97806.59
2023-04-08T04:53:22.702Z,97791.41
2023-04-08T04:55:50.512Z,97800.25
2023-04-08T04:58:17.325Z,97824.00
2023-04-08T05:00:43.829Z,97825.09
2023-04-08T05:03:10.735Z,97850.50
2023-04-08T05:05:37.429Z,97882.00
2023-04-08T05:08:04.032Z,97901.88
2023-04-08T05:10:31.252Z,97909.09
2023-04-08T05:12:57.893Z,97916.50
2023-04-08T05:15:24.348Z,97873.00
2023-04-08T05:17:50.902Z,97864.06
2023-04-08T05:20:17.696Z,97852.31
2023-04-08T05:22:45.455Z,97867.38
2023-04-08T05:25:12.012Z,97871.75
2023-04-08T05:27:38.644Z,97806.88
2023-04-08T05:30:05.768Z,97778.00
2023-04-08T05:32:32.344Z,97738.09
2023-04-08T05:34:58.819Z,97731.19
2023-04-08T05:37:25.161Z,97742.22
2023-04-08T05:39:51.718Z,97783.13
2023-04-08T05:42:18.988Z,97771.78
2023-04-08T05:44:45.521Z,97810.75
2023-04-08T05:47:12.053Z,97814.19
2023-04-08T05:49:38.534Z,97824.13
2023-04-08T05:52:05.419Z,97868.22
2023-04-08T05:54:32.081Z,97893.06
2023-04-08T05:56:59.178Z,97962.47
2023-04-08T05:59:26.048Z,97976.47
2023-04-08T06:01:52.692Z,97959.09
2023-04-08T06:04:19.286Z,97936.06
2023-04-08T06:06:45.837Z,97931.19
2023-04-08T06:09:12.456Z,97909.69
2023-04-08T06:11:38.955Z,97973.25
2023-04-08T06:14:05.381Z,98000.63
2023-04-08T06:16:31.981Z,98025.09
2023-04-08T06:18:58.438Z,98065.84
2023-04-08T06:21:24.981Z,97999.44
2023-04-08T06:23:51.364Z,97945.75
2023-04-08T06:26:18.242Z,97977.13
2023-04-08T06:28:44.668Z,97985.28
2023-04-08T06:31:11.617Z,98007.25
2023-04-08T06:33:38.017Z,98011.00
2023-04-08T06:36:05.141Z,98047.91
2023-04-08T06:38:35.248Z,98114.53
2023-04-08T06:41:04.742Z,98139.06
2023-04-08T06:43:31.480Z,98220.47
2023-04-08T06:45:58.214Z,98252.44
2023-04-08T06:48:28.969Z,98259.75
2023-04-08T06:50:56.321Z,98300.31
2023-04-08T06:53:24.371Z,98382.78
2023-04-08T06:55:51.001Z,98414.41
2023-04-08T06:58:18.077Z,98504.41
2023-04-08T07:00:44.747Z,98563.28
2023-04-08T07:03:14.288Z,98572.66
2023-04-08T07:05:42.306Z,98675.19
2023-04-08T07:08:09.071Z,98719.75
2023-04-08T07:10:35.927Z,98753.66
2023-04-08T07:13:02.738Z,98795.25
2023-04-08T07:15:29.283Z,98840.22
2023-04-08T07:17:59.818Z,98869.41
2023-04-08T07:20:26.532Z,98940.41
2023-04-08T07:22:53.268Z,98973.91
2023-04-08T07:25:19.807Z,99003.34
2023-04-08T07:27:46.595Z,99031.38
2023-04-08T07:30:13.806Z,99026.56
2023-04-08T07:32:41.056Z,99031.38
2023-04-08T07:35:10.547Z,99019.53
2023-04-08T07:37:36.981Z,99017.72
2023-04-08T07:40:04.231Z,99008.38
2023-04-08T07:42:30.778Z,99008.63
2023-04-08T07:44:57.147Z,98958.38
2023-04-08T07:47:23.683Z,98926.56
2023-04-08T07:49:50.314Z,98852.53
2023-04-08T07:52:17.205Z,98749.00
2023-04-08T07:54:43.641Z,98680.41
2023-04-08T07:57:10.146Z,98626.16
2023-04-08T07:59:36.979Z,98504.72
2023-04-08T08:02:03.864Z,98450.75
2023-04-08T08:04:30.414Z,98436.97
2023-04-08T08:06:57.026Z,98433.81
2023-04-08T08:09:23.538Z,98400.31
2023-04-08T08:11:50.134Z,98360.19
2023-04-08T08:14:16.757Z,98314.97
2023-04-08T08:16:44.718Z,98272.22
2023-04-08T08:19:12.722Z,98215.06
2023-04-08T08:21:39.833Z,98238.22
2023-04-08T08:24:06.723Z,98325.13
2023-04-08T08:26:39.503Z,98228.66
2023-04-08T08:29:08.784Z,98270.59
2023-04-08T08:31:35.897Z,98340.19
2023-04-08T08:34:03.105Z,98319.78
2023-04-08T08:36:29.773Z,98365.53
2023-04-08T08:38:56.580Z,98435.69
2023-04-08T08:41:23.327Z,98527.72
2023-04-08T08:43:49.985Z,98461.59
2023-04-08T08:46:18.261Z,98503.72
2023-04-08T08:48:45.207Z,98494.56
2023-04-08T08:51:12.192Z,98562.28
2023-04-08T08:53:39.044Z,98568.34
2023-04-08T08:58:39.492Z,98650.63
2023-04-08T09:01:25.030Z,98696.28
2023-04-08T09:04:07.453Z,98724.50
2023-04-08T09:06:33.984Z,98746.16
2023-04-08T09:09:00.632Z,98744.28
2023-04-08T09:11:27.121Z,98771.06
2023-04-08T09:13:53.718Z,98761.91
2023-04-08T09:16:20.464Z,98685.72
2023-04-08T09:18:49.422Z,98680.28
2023-04-08T09:21:17.136Z,98676.75
2023-04-08T09:23:48.233Z,98669.72
2023-04-08T09:26:16.992Z,98688.94
2023-04-08T09:28:44.542Z,98710.03
2023-04-08T09:31:24.750Z,98692.53
2023-04-08T09:33:53.202Z,98633.81
2023-04-08T09:36:19.592Z,98586.78
2023-04-08T09:38:46.905Z,98604.28
2023-04-08T09:41:17.477Z,98518.13
2023-04-08T09:43:49.692Z,98443.25
2023-04-08T09:46:18.441Z,98470.91
2023-04-08T09:48:50.713Z,98504.28
2023-04-08T09:51:19.799Z,98469.59
2023-04-08T09:53:54.805Z,98455.41
2023-04-08T09:56:22.433Z,98431.22
2023-04-08T09:58:54.722Z,98381.63
2023-04-08T10:01:26.160Z,98336.69
2023-04-08T10:03:55.080Z,98280.59
2023-04-08T10:06:22.573Z,98242.53
2023-04-08T10:08:49.084Z,98229.78
2023-04-08T10:11:16.277Z,98204.88
2023-04-08T10:13:43.961Z,98218.16
2023-04-08T10:16:17.272Z,98213.00
2023-04-08T10:18:44.517Z,98068.31
2023-04-08T10:21:31.540Z,98049.38
2023-04-08T10:24:06.362Z,97988.09
2023-04-08T10:26:34.698Z,98031.19
2023-04-08T10:29:27.285Z,97980.66
2023-04-08T10:31:53.696Z,97988.75
2023-04-08T10:34:27.589Z,97994.81
2023-04-08T10:36:55.855Z,98079.59
2023-04-08T10:39:22.668Z,98086.09
2023-04-08T10:41:50.709Z,98132.59
2023-04-08T10:44:17.983Z,98115.41
2023-04-08T10:46:46.071Z,98083.34
2023-04-08T10:49:13.326Z,98073.66
2023-04-08T10:51:40.442Z,98139.13
2023-04-08T10:54:10.968Z,98211.22
2023-04-08T10:56:43.869Z,98224.78
2023-04-08T10:59:11.114Z,98223.16
2023-04-08T11:01:41.486Z,98187.38
2023-04-08T11:04:13.133Z,98142.22
2023-04-08T11:06:39.654Z,98165.41
2023-04-08T11:09:06.174Z,98065.88
2023-04-08T11:11:36.172Z,98016.91
2023-04-08T11:14:03.505Z,98154.28
2023-04-08T11:16:30.044Z,98175.53
2023-04-08T11:18:57.119Z,98108.16
2023-04-08T11:21:24.243Z,98127.72
2023-04-08T11:23:52.300Z,98201.34
2023-04-08T11:26:19.987Z,98274.13
2023-04-08T11:28:49.320Z,98328.63
2023-04-08T11:31:17.563Z,98421.38
2023-04-08T11:33:53.374Z,98505.09
2023-04-08T11:36:22.211Z,98505.66
2023-04-08T11:38:49.081Z,98541.19
2023-04-08T11:41:16.405Z,98590.06
2023-04-08T11:44:01.373Z,98584.25
2023-04-08T11:46:29.493Z,98605.31
2023-04-08T11:48:59.787Z,98644.78
2023-04-08T11:51:27.310Z,98673.81
2023-04-08T11:53:56.188Z,98743.97
2023-04-08T11:56:23.955Z,98784.06
2023-04-08T11:58:51.236Z,98753.34
2023-04-08T12:01:18.137Z,98681.97
2023-04-08T12:03:58.517Z,98692.41
2023-04-08T12:06:27.277Z,98607.97
2023-04-08T12:08:54.835Z,98619.63
2023-04-08T12:11:21.600Z,98618.91
2023-04-08T12:13:50.977Z,98579.47
2023-04-08T12:16:18.111Z,98512.03
2023-04-08T12:18:45.105Z,98541.75
2023-04-08T12:21:11.721Z,98488.47
2023-04-08T12:23:38.244Z,98452.69
2023-04-08T12:26:05.168Z,98399.13
2023-04-08T12:28:32.556Z,98291.66
2023-04-08T12:30:58.991Z,98274.59
2023-04-08T12:33:26.489Z,98300.97
2023-04-08T12:35:54.237Z,98266.03
2023-04-08T12:38:20.782Z,98259.88
2023-04-08T12:40:49.185Z,98248.25
2023-04-08T12:43:16.731Z,98203.13
2023-04-08T12:45:43.609Z,98136.03
2023-04-08T12:48:10.644Z,98079.19
2023-04-08T12:50:37.196Z,98037.81
2023-04-08T12:53:03.654Z,98012.16
2023-04-08T12:55:33.330Z,97996.59
2023-04-08T12:57:59.849Z,97963.88
2023-04-08T13:00:26.750Z,97925.88
2023-04-08T13:02:53.202Z,97943.31
2023-04-08T13:05:26.294Z,97893.16
2023-04-08T13:07:59.839Z,97861.16
2023-04-08T13:10:26.698Z,97829.28
2023-04-08T13:12:53.469Z,97783.78
2023-04-08T13:15:20.090Z,97723.53
2023-04-08T13:17:46.568Z,97670.47
2023-04-08T13:20:13.108Z,97641.56
2023-04-08T13:22:41.542Z,97581.66
2023-04-08T13:25:08.213Z,97586.78
2023-04-08T13:27:34.816Z,97534.66
2023-04-08T13:30:01.919Z,97523.94
2023-04-08T13:32:28.434Z,97444.50
2023-04-08T13:34:54.813Z,97390.41
2023-04-08T13:37:21.536Z,97349.16
2023-04-08T13:39:47.995Z,97429.72
2023-04-08T13:44:54.238Z,97740.63
2023-04-08T13:47:20.819Z,97843.75
2023-04-08T13:49:47.455Z,97900.75
2023-04-08T13:52:13.981Z,98088.34
2023-04-08T13:54:40.698Z,98117.06
2023-04-08T13:57:07.171Z,98189.72
2023-04-08T13:59:33.584Z,98251.75
2023-04-08T14:02:00.275Z,98354.78
2023-04-08T14:04:27.509Z,98434.78
2023-04-08T14:06:54.009Z,98494.69
2023-04-08T14:09:21.184Z,98549.88
2023-04-08T14:11:47.602Z,98609.72
2023-04-08T14:14:14.082Z,98700.72
2023-04-08T14:16:41.822Z,98745.47
2023-04-08T14:19:08.520Z,98751.72
2023-04-08T14:21:34.995Z,98798.56
2023-04-08T14:24:02.696Z,98830.63
2023-04-08T14:26:29.599Z,98815.94
2023-04-08T14:28:56.007Z,98872.69
2023-04-08T14:31:22.568Z,98892.56
2023-04-08T14:33:49.096Z,98903.22
2023-04-08T14:36:16.786Z,98942.50
2023-04-08T14:38:43.286Z,98957.50
2023-04-08T14:41:10.351Z,98994.78
2023-04-08T14:43:36.915Z,99024.22
2023-04-08T14:46:03.366Z,99076.53
2023-04-08T14:48:30.831Z,99082.06
2023-04-08T14:50:57.624Z,99143.84
2023-04-08T14:53:24.289Z,99199.59
2023-04-08T14:55:57.417Z,99147.84
2023-04-08T14:58:23.846Z,99144.31
2023-04-08T15:00:50.414Z,99194.41
2023-04-08T15:03:18.015Z,99153.06
2023-04-08T15:05:45.234Z,99167.69
2023-04-08T15:08:11.986Z,99177.09
2023-04-08T15:10:38.388Z,99181.72
2023-04-08T15:13:04.964Z,99223.16
2023-04-08T15:15:31.521Z,99238.25
2023-04-08T15:17:58.157Z,99264.09
2023-04-08T15:20:24.901Z,99266.19
2023-04-08T15:22:51.984Z,99289.41
2023-04-08T15:25:18.457Z,99244.69
2023-04-08T15:27:44.927Z,99245.28
2023-04-08T15:30:12.547Z,99194.41
2023-04-08T15:32:40.597Z,99190.50
2023-04-08T15:35:07.827Z,99223.66
2023-04-08T15:37:34.367Z,99233.31
2023-04-08T15:40:01.036Z,99212.53
2023-04-08T15:42:27.678Z,99232.06
2023-04-08T15:44:54.238Z,99210.03
2023-04-08T15:47:20.869Z,99215.38
2023-04-08T15:49:48.947Z,99220.63
2023-04-08T15:52:15.567Z,99220.09
2023-04-08T15:54:42.142Z,99212.53
2023-04-08T15:57:08.786Z,99154.56
2023-04-08T15:59:35.915Z,99184.03
2023-04-08T16:02:03.336Z,99184.09
2023-04-08T16:04:30.092Z,99203.28
2023-04-08T16:06:57.078Z,99236.31
2023-04-08T16:09:26.759Z,99250.38
2023-04-08T16:11:53.778Z,99223.28
2023-04-08T16:14:20.192Z,99224.97
2023-04-08T16:16:47.320Z,99215.28
2023-04-08T16:19:14.336Z,99214.81
2023-04-08T16:21:40.725Z,99192.75
2023-04-08T16:24:07.618Z,99167.97
2023-04-08T16:26:34.357Z,99152.38
2023-04-08T16:29:01.118Z,99145.25
2023-04-08T16:31:27.636Z,99176.03
2023-04-08T16:33:54.368Z,99168.03
2023-04-08T16:36:21.642Z,99148.88
2023-04-08T16:38:48.263Z,99190.06
2023-04-08T16:41:14.812Z,99192.19
2023-04-08T16:43:41.713Z,99173.28
2023-04-08T16:46:26.839Z,99184.34
2023-04-08T16:48:53.335Z,99203.66
2023-04-08T16:51:19.919Z,99199.34
2023-04-08T16:53:46.345Z,99176.34
2023-04-08T16:56:16.691Z,99161.69
2023-04-08T16:58:43.704Z,99182.81
2023-04-08T17:01:16.479Z,99151.63
2023-04-08T17:03:43.117Z,99144.16
2023-04-08T17:06:10.673Z,99165.53
2023-04-08T17:08:37.043Z,99181.06
2023-04-08T17:11:07.943Z,99159.63
2023-04-08T17:13:34.557Z,99144.59
2023-04-08T17:16:01.190Z,99119.19
2023-04-08T17:18:27.734Z,99127.81
2023-04-08T17:20:54.269Z,99071.84
2023-04-08T17:23:20.885Z,99027.09
2023-04-08T17:25:47.754Z,99013.13
2023-04-08T17:28:15.384Z,99001.81
2023-04-08T17:30:42.005Z,99040.41
2023-04-08T17:33:09.155Z,99057.16
2023-04-08T17:35:36.158Z,99034.47
2023-04-08T17:38:03.277Z,99057.25
2023-04-08T17:40:30.541Z,99036.84
2023-04-08T17:42:57.471Z,99059.94
2023-04-08T17:45:24.279Z,99062.28
2023-04-08T17:47:51.865Z,99072.66
2023-04-08T17:50:18.744Z,99045.00
2023-04-08T17:52:48.602Z,99058.41
2023-04-08T17:55:15.005Z,99046.69
2023-04-08T17:57:41.978Z,99022.56
2023-04-08T18:00:09.015Z,99018.19
2023-04-08T18:02:36.995Z,98992.81
2023-04-08T18:05:04.255Z,98998.97
2023-04-08T18:07:30.909Z,99007.34
2023-04-08T18:09:57.378Z,99020.63
2023-04-08T18:12:23.887Z,99020.78
2023-04-08T18:14:51.051Z,99015.50
2023-04-08T18:17:17.536Z,98985.41
2023-04-08T18:19:43.933Z,98966.53
2023-04-08T18:22:10.456Z,98923.41
2023-04-08T18:24:37.346Z,98936.78
2023-04-08T18:27:05.065Z,98948.03
2023-04-08T18:29:31.743Z,98956.38
2023-04-08T18:31:58.216Z,98963.25
2023-04-08T18:34:25.367Z,98966.09
2023-04-08T18:36:52.229Z,98955.25
2023-04-08T18:39:18.761Z,98965.50
2023-04-08T18:41:45.358Z,98958.63
2023-04-08T18:44:12.210Z,98976.00
2023-04-08T18:46:39.145Z,98983.91
2023-04-08T18:49:05.826Z,98962.25
2023-04-08T18:51:33.630Z,98927.25
2023-04-08T18:54:00.111Z,98934.97
2023-04-08T18:56:26.698Z,98931.25
2023-04-08T18:58:54.768Z,98944.03
2023-04-08T19:01:21.796Z,98934.50
2023-04-08T19:03:48.734Z,98927.38
2023-04-08T19:06:17.342Z,98954.44
2023-04-08T19:08:43.827Z,98963.72
2023-04-08T19:11:10.348Z,98965.41
2023-04-08T19:13:37.105Z,98961.91
2023-04-08T19:16:03.766Z,98950.53
2023-04-08T19:18:30.464Z,98905.84
2023-04-08T19:20:57.013Z,98892.66
2023-04-08T19:23:23.481Z,98871.69
2023-04-08T19:25:50.461Z,98874.97
2023-04-08T19:28:18.105Z,98857.50
2023-04-08T19:30:44.981Z,98848.53
2023-04-08T19:33:11.454Z,98835.34
2023-04-08T19:35:39.408Z,98826.09
2023-04-08T19:38:06.794Z,98822.75
2023-04-08T19:40:33.284Z,98817.50
2023-04-08T19:42:59.700Z,98843.94
2023-04-08T19:45:26.240Z,98861.31
2023-04-08T19:47:52.850Z,98850.91
2023-04-08T19:50:22.278Z,98834.25
2023-04-08T19:52:49.085Z,98829.50
2023-04-08T19:55:15.900Z,98873.03
2023-04-08T19:57:42.452Z,98858.66
2023-04-08T20:00:09.348Z,98868.94
2023-04-08T20:02:35.911Z,98880.25
2023-04-08T20:05:03.089Z,98897.25
2023-04-08T20:07:29.674Z,98889.69
2023-04-08T20:09:56.182Z,98885.84
2023-04-08T20:12:22.664Z,98904.16
2023-04-08T20:14:49.521Z,98909.31
2023-04-08T20:17:16.629Z,98905.59
2023-04-08T20:19:43.047Z,98906.41
2023-04-08T20:22:09.672Z,98928.78
2023-04-08T20:24:36.888Z,98939.72
2023-04-08T20:27:03.516Z,98928.34
2023-04-08T20:29:30.018Z,98926.44
2023-04-08T20:31:56.756Z,98927.59
2023-04-08T20:34:23.186Z,98957.53
2023-04-08T20:36:49.680Z,98956.13
2023-04-08T20:39:16.398Z,98960.22
2023-04-08T20:41:43.499Z,98955.88
2023-04-08T20:44:10.797Z,98959.03
2023-04-08T20:46:37.942Z,98936.38
2023-04-08T20:49:05.121Z,98948.09
2023-04-08T20:51:34.228Z,98948.34
2023-04-08T20:54:01.258Z,98948.94
2023-04-08T20:56:28.373Z,98939.66
2023-04-08T20:58:55.139Z,98929.81
2023-04-08T21:01:24.114Z,98908.03
2023-04-08T21:03:51.020Z,98906.81
2023-04-08T21:06:18.259Z,98895.81
2023-04-08T21:08:45.412Z,98913.88
2023-04-08T21:11:12.327Z,98920.13
2023-04-08T21:13:38.933Z,98912.09
2023-04-08T21:16:05.930Z,98911.88
2023-04-08T21:18:32.604Z,98900.81
2023-04-08T21:21:02.067Z,98898.88
2023-04-08T21:23:28.693Z,98900.69
2023-04-08T21:25:55.329Z,98906.34
2023-04-08T21:28:22.092Z,98864.25
2023-04-08T21:30:48.730Z,98825.47
2023-04-08T21:33:15.681Z,98805.09
2023-04-08T21:35:42.145Z,98775.13
2023-04-08T21:38:08.689Z,98777.78
2023-04-08T21:40:35.401Z,98761.97
2023-04-08T21:43:01.895Z,98737.47
2023-04-08T21:45:29.996Z,98689.63
2023-04-08T21:47:56.677Z,98654.84
2023-04-08T21:50:23.182Z,98640.91
2023-04-08T21:52:49.539Z,98612.91
2023-04-08T21:55:16.164Z,98590.44
2023-04-08T21:57:43.320Z,98566.03
2023-04-08T22:00:13.606Z,98544.97
2023-04-08T22:02:43.833Z,98532.06
2023-04-08T22:05:10.871Z,98512.38
2023-04-08T22:07:38.003Z,98518.78
2023-04-08T22:10:04.655Z,98534.44
2023-04-08T22:12:31.076Z,98538.56
2023-04-08T22:14:58.174Z,98526.78
2023-04-08T22:17:24.821Z,98507.78
2023-04-08T22:19:51.617Z,98515.00
2023-04-08T22:22:18.194Z,98493.63
2023-04-08T22:24:44.911Z,98468.53
2023-04-08T22:27:14.972Z,98451.38
2023-04-08T22:29:41.862Z,98430.72
2023-04-08T22:32:10.495Z,98439.88
2023-04-08T22:34:37.056Z,98434.63
2023-04-08T22:37:03.639Z,98452.38
2023-04-08T22:39:30.141Z,98454.84
2023-04-08T22:41:57.678Z,98423.50
2023-04-08T22:44:24.122Z,98371.38
2023-04-08T22:46:50.722Z,98333.72
2023-04-08T22:49:17.345Z,98333.97
2023-04-08T22:51:43.986Z,98302.94
2023-04-08T22:54:11.208Z,98266.06
2023-04-08T22:56:37.607Z,98263.56
2023-04-08T22:59:04.193Z,98256.53
2023-04-08T23:01:31.026Z,98244.88
2023-04-08T23:03:57.678Z,98209.25
2023-04-08T23:06:25.817Z,98212.59
2023-04-08T23:08:52.414Z,98217.28
2023-04-08T23:11:18.995Z,98226.28
2023-04-08T23:13:45.529Z,98209.25
2023-04-08T23:16:12.238Z,98240.84
2023-04-08T23:18:38.731Z,98258.59
2023-04-08T23:21:05.500Z,98233.09
2023-04-08T23:23:32.350Z,98253.19
2023-04-08T23:25:59.042Z,98260.25
2023-04-08T23:28:25.706Z,98218.97
2023-04-08T23:30:52.336Z,98220.34
2023-04-08T23:33:18.910Z,98216.31
2023-04-08T23:35:45.675Z,98203.44
2023-04-08T23:38:12.282Z,98192.91
2023-04-08T23:40:38.695Z,98189.59
2023-04-08T23:43:05.376Z,98162.16
2023-04-08T23:45:34.087Z,98165.91
2023-04-08T23:48:00.598Z,98161.91
2023-04-08T23:50:27.147Z,98140.81
2023-04-08T23:52:53.761Z,98144.72
2023-04-08T23:55:20.235Z,98124.75
2023-04-08T23:57:49.246Z,98125.34
